sensor_id;sensor_type;location;lat;lon;timestamp;P1;durP1;ratioP1;P2;durP2;ratioP2
3781;SDS011;6881;49.962;7.718;2023-05-24T00:01:50;9.00;;;6.63;;
3781;SDS011;6881;49.962;7.718;2023-05-24T00:04:16;11.30;;;6.40;;
3781;SDS011;6881;49.962;7.718;2023-05-24T00:06:42;9.30;;;7.23;;
3781;SDS011;6881;49.962;7.718;2023-05-24T00:09:08;10.27;;;7.00;;
3781;SDS011;6881;49.962;7.718;2023-05-24T00:11:35;15.30;;;6.00;;
3781;SDS011;6881;49.962;7.718;2023-05-24T00:14:00;9.37;;;6.77;;
3781;SDS011;6881;49.962;7.718;2023-05-24T00:16:26;8.10;;;6.13;;
3781;SDS011;6881;49.962;7.718;2023-05-24T00:18:51;10.73;;;6.73;;
3781;SDS011;6881;49.962;7.718;2023-05-24T00:21:16;7.93;;;5.20;;
3781;SDS011;6881;49.962;7.718;2023-05-24T00:23:42;9.90;;;6.10;;
3781;SDS011;6881;49.962;7.718;2023-05-24T00:26:08;7.30;;;5.43;;
3781;SDS011;6881;49.962;7.718;2023-05-24T00:28:34;10.50;;;5.23;;
3781;SDS011;6881;49.962;7.718;2023-05-24T00:30:59;7.57;;;5.33;;
3781;SDS011;6881;49.962;7.718;2023-05-24T00:33:25;6.87;;;5.60;;
3781;SDS011;6881;49.962;7.718;2023-05-24T00:35:52;9.57;;;5.40;;
3781;SDS011;6881;49.962;7.718;2023-05-24T00:38:20;8.37;;;5.40;;
3781;SDS011;6881;49.962;7.718;2023-05-24T00:40:46;8.90;;;5.50;;
3781;SDS011;6881;49.962;7.718;2023-05-24T00:43:12;8.60;;;5.90;;
3781;SDS011;6881;49.962;7.718;2023-05-24T00:45:38;8.50;;;4.27;;
3781;SDS011;6881;49.962;7.718;2023-05-24T00:48:03;9.73;;;5.50;;
3781;SDS011;6881;49.962;7.718;2023-05-24T00:50:29;5.67;;;4.80;;
3781;SDS011;6881;49.962;7.718;2023-05-24T00:52:54;9.43;;;5.97;;
3781;SDS011;6881;49.962;7.718;2023-05-24T00:55:20;10.50;;;5.87;;
3781;SDS011;6881;49.962;7.718;2023-05-24T00:57:45;8.00;;;5.10;;
3781;SDS011;6881;49.962;7.718;2023-05-24T01:00:11;12.00;;;6.07;;
3781;SDS011;6881;49.962;7.718;2023-05-24T01:02:37;9.70;;;6.30;;
3781;SDS011;6881;49.962;7.718;2023-05-24T01:05:03;14.10;;;6.33;;
3781;SDS011;6881;49.962;7.718;2023-05-24T01:07:36;10.90;;;6.20;;
3781;SDS011;6881;49.962;7.718;2023-05-24T01:10:16;12.33;;;5.80;;
3781;SDS011;6881;49.962;7.718;2023-05-24T01:13:23;9.33;;;6.50;;
3781;SDS011;6881;49.962;7.718;2023-05-24T01:15:58;8.80;;;5.97;;
3781;SDS011;6881;49.962;7.718;2023-05-24T01:18:27;11.53;;;6.53;;
3781;SDS011;6881;49.962;7.718;2023-05-24T01:29:22;7.53;;;4.73;;
3781;SDS011;6881;49.962;7.718;2023-05-24T01:31:47;8.87;;;5.30;;
3781;SDS011;6881;49.962;7.718;2023-05-24T01:34:13;9.93;;;6.20;;
3781;SDS011;6881;49.962;7.718;2023-05-24T01:36:38;12.43;;;5.93;;
3781;SDS011;6881;49.962;7.718;2023-05-24T01:39:04;6.00;;;4.93;;
3781;SDS011;6881;49.962;7.718;2023-05-24T01:44:12;14.03;;;5.20;;
3781;SDS011;6881;49.962;7.718;2023-05-24T01:46:41;10.47;;;6.20;;
3781;SDS011;6881;49.962;7.718;2023-05-24T01:49:23;8.03;;;5.97;;
3781;SDS011;6881;49.962;7.718;2023-05-24T01:51:52;8.57;;;5.77;;
3781;SDS011;6881;49.962;7.718;2023-05-24T01:54:21;8.83;;;5.00;;
3781;SDS011;6881;49.962;7.718;2023-05-24T01:56:48;7.63;;;4.77;;
3781;SDS011;6881;49.962;7.718;2023-05-24T01:59:14;7.80;;;5.40;;
3781;SDS011;6881;49.962;7.718;2023-05-24T02:01:39;10.63;;;4.57;;
3781;SDS011;6881;49.962;7.718;2023-05-24T02:04:05;6.23;;;4.67;;
3781;SDS011;6881;49.962;7.718;2023-05-24T02:06:31;4.40;;;3.73;;
3781;SDS011;6881;49.962;7.718;2023-05-24T02:08:56;7.77;;;4.70;;
3781;SDS011;6881;49.962;7.718;2023-05-24T02:11:21;5.30;;;3.87;;
3781;SDS011;6881;49.962;7.718;2023-05-24T02:13:47;5.30;;;4.13;;
3781;SDS011;6881;49.962;7.718;2023-05-24T02:16:12;8.53;;;5.07;;
3781;SDS011;6881;49.962;7.718;2023-05-24T02:18:37;10.70;;;4.73;;
3781;SDS011;6881;49.962;7.718;2023-05-24T02:21:04;9.20;;;4.90;;
3781;SDS011;6881;49.962;7.718;2023-05-24T02:23:29;6.80;;;4.27;;
3781;SDS011;6881;49.962;7.718;2023-05-24T02:25:55;8.47;;;4.53;;
3781;SDS011;6881;49.962;7.718;2023-05-24T02:28:20;5.40;;;4.77;;
3781;SDS011;6881;49.962;7.718;2023-05-24T02:30:46;14.37;;;5.37;;
3781;SDS011;6881;49.962;7.718;2023-05-24T02:33:11;8.60;;;4.80;;
3781;SDS011;6881;49.962;7.718;2023-05-24T02:35:37;7.30;;;4.20;;
3781;SDS011;6881;49.962;7.718;2023-05-24T02:38:03;13.83;;;4.83;;
3781;SDS011;6881;49.962;7.718;2023-05-24T02:40:30;5.40;;;4.50;;
3781;SDS011;6881;49.962;7.718;2023-05-24T02:42:56;7.00;;;3.80;;
3781;SDS011;6881;49.962;7.718;2023-05-24T02:45:21;8.93;;;4.50;;
3781;SDS011;6881;49.962;7.718;2023-05-24T02:47:46;6.03;;;4.77;;
3781;SDS011;6881;49.962;7.718;2023-05-24T02:50:12;5.70;;;3.63;;
3781;SDS011;6881;49.962;7.718;2023-05-24T02:52:37;8.20;;;4.60;;
3781;SDS011;6881;49.962;7.718;2023-05-24T02:55:02;6.83;;;4.60;;
3781;SDS011;6881;49.962;7.718;2023-05-24T02:57:28;5.43;;;4.27;;
3781;SDS011;6881;49.962;7.718;2023-05-24T02:59:53;9.23;;;4.57;;
3781;SDS011;6881;49.962;7.718;2023-05-24T03:02:19;7.97;;;4.17;;
3781;SDS011;6881;49.962;7.718;2023-05-24T03:04:46;7.90;;;4.80;;
3781;SDS011;6881;49.962;7.718;2023-05-24T03:07:11;8.47;;;4.50;;
3781;SDS011;6881;49.962;7.718;2023-05-24T03:09:38;7.03;;;4.30;;
3781;SDS011;6881;49.962;7.718;2023-05-24T03:12:03;10.70;;;5.23;;
3781;SDS011;6881;49.962;7.718;2023-05-24T03:14:29;6.37;;;3.50;;
3781;SDS011;6881;49.962;7.718;2023-05-24T03:16:55;7.53;;;4.30;;
3781;SDS011;6881;49.962;7.718;2023-05-24T03:19:20;5.43;;;4.00;;
3781;SDS011;6881;49.962;7.718;2023-05-24T03:21:45;6.03;;;3.83;;
3781;SDS011;6881;49.962;7.718;2023-05-24T03:24:11;6.37;;;4.00;;
3781;SDS011;6881;49.962;7.718;2023-05-24T03:26:37;8.33;;;4.07;;
3781;SDS011;6881;49.962;7.718;2023-05-24T03:29:03;13.77;;;4.20;;
3781;SDS011;6881;49.962;7.718;2023-05-24T03:31:29;7.00;;;4.07;;
3781;SDS011;6881;49.962;7.718;2023-05-24T03:33:54;7.87;;;4.07;;
3781;SDS011;6881;49.962;7.718;2023-05-24T03:36:20;4.63;;;3.90;;
3781;SDS011;6881;49.962;7.718;2023-05-24T03:38:45;8.63;;;4.13;;
3781;SDS011;6881;49.962;7.718;2023-05-24T03:41:11;14.00;;;4.90;;
3781;SDS011;6881;49.962;7.718;2023-05-24T03:43:36;9.03;;;4.40;;
3781;SDS011;6881;49.962;7.718;2023-05-24T03:46:01;11.07;;;4.60;;
3781;SDS011;6881;49.962;7.718;2023-05-24T03:48:27;9.90;;;4.03;;
3781;SDS011;6881;49.962;7.718;2023-05-24T03:50:52;8.90;;;3.70;;
3781;SDS011;6881;49.962;7.718;2023-05-24T03:53:17;5.50;;;3.77;;
3781;SDS011;6881;49.962;7.718;2023-05-24T03:55:43;8.50;;;4.40;;
3781;SDS011;6881;49.962;7.718;2023-05-24T03:58:09;11.17;;;4.50;;
3781;SDS011;6881;49.962;7.718;2023-05-24T04:00:34;8.60;;;4.03;;
3781;SDS011;6881;49.962;7.718;2023-05-24T04:03:00;5.70;;;3.73;;
3781;SDS011;6881;49.962;7.718;2023-05-24T04:05:25;9.23;;;4.53;;
3781;SDS011;6881;49.962;7.718;2023-05-24T04:07:53;11.73;;;4.57;;
3781;SDS011;6881;49.962;7.718;2023-05-24T04:10:19;7.03;;;4.00;;
3781;SDS011;6881;49.962;7.718;2023-05-24T04:12:44;11.53;;;4.10;;
3781;SDS011;6881;49.962;7.718;2023-05-24T04:15:10;13.80;;;4.50;;
3781;SDS011;6881;49.962;7.718;2023-05-24T04:17:39;6.73;;;3.80;;
3781;SDS011;6881;49.962;7.718;2023-05-24T04:20:06;9.97;;;3.97;;
3781;SDS011;6881;49.962;7.718;2023-05-24T04:22:33;8.50;;;4.93;;
3781;SDS011;6881;49.962;7.718;2023-05-24T04:25:00;8.40;;;4.10;;
3781;SDS011;6881;49.962;7.718;2023-05-24T04:27:26;17.00;;;4.60;;
3781;SDS011;6881;49.962;7.718;2023-05-24T04:29:51;12.23;;;4.00;;
3781;SDS011;6881;49.962;7.718;2023-05-24T04:32:17;6.27;;;3.10;;
3781;SDS011;6881;49.962;7.718;2023-05-24T04:34:44;5.43;;;3.40;;
3781;SDS011;6881;49.962;7.718;2023-05-24T04:37:10;6.83;;;4.20;;
3781;SDS011;6881;49.962;7.718;2023-05-24T04:39:35;6.10;;;3.67;;
3781;SDS011;6881;49.962;7.718;2023-05-24T04:42:00;14.77;;;3.80;;
3781;SDS011;6881;49.962;7.718;2023-05-24T04:44:26;12.73;;;3.40;;
3781;SDS011;6881;49.962;7.718;2023-05-24T04:46:51;12.00;;;3.40;;
3781;SDS011;6881;49.962;7.718;2023-05-24T04:49:17;8.10;;;3.00;;
3781;SDS011;6881;49.962;7.718;2023-05-24T04:51:43;5.97;;;3.27;;
3781;SDS011;6881;49.962;7.718;2023-05-24T04:54:09;5.10;;;2.83;;
3781;SDS011;6881;49.962;7.718;2023-05-24T04:56:35;12.37;;;3.63;;
3781;SDS011;6881;49.962;7.718;2023-05-24T04:59:02;7.50;;;3.67;;
3781;SDS011;6881;49.962;7.718;2023-05-24T05:01:28;7.73;;;3.17;;
3781;SDS011;6881;49.962;7.718;2023-05-24T05:03:53;8.10;;;3.60;;
3781;SDS011;6881;49.962;7.718;2023-05-24T05:06:19;8.07;;;2.57;;
3781;SDS011;6881;49.962;7.718;2023-05-24T05:08:44;14.30;;;3.60;;
3781;SDS011;6881;49.962;7.718;2023-05-24T05:11:10;6.03;;;3.50;;
3781;SDS011;6881;49.962;7.718;2023-05-24T05:13:35;5.80;;;3.33;;
3781;SDS011;6881;49.962;7.718;2023-05-24T05:16:00;11.40;;;3.67;;
3781;SDS011;6881;49.962;7.718;2023-05-24T05:18:26;5.43;;;2.97;;
3781;SDS011;6881;49.962;7.718;2023-05-24T05:20:51;10.77;;;4.27;;
3781;SDS011;6881;49.962;7.718;2023-05-24T05:23:17;7.23;;;3.07;;
3781;SDS011;6881;49.962;7.718;2023-05-24T05:25:42;11.13;;;2.77;;
3781;SDS011;6881;49.962;7.718;2023-05-24T05:28:07;7.97;;;3.20;;
3781;SDS011;6881;49.962;7.718;2023-05-24T05:30:33;5.17;;;2.43;;
3781;SDS011;6881;49.962;7.718;2023-05-24T05:32:58;3.93;;;2.90;;
3781;SDS011;6881;49.962;7.718;2023-05-24T05:35:23;6.70;;;2.90;;
3781;SDS011;6881;49.962;7.718;2023-05-24T05:37:48;7.10;;;2.80;;
3781;SDS011;6881;49.962;7.718;2023-05-24T05:40:14;6.30;;;2.80;;
3781;SDS011;6881;49.962;7.718;2023-05-24T05:42:39;13.40;;;3.80;;
3781;SDS011;6881;49.962;7.718;2023-05-24T05:45:05;4.87;;;2.23;;
3781;SDS011;6881;49.962;7.718;2023-05-24T05:47:31;11.07;;;3.10;;
3781;SDS011;6881;49.962;7.718;2023-05-24T05:49:56;7.17;;;3.43;;
3781;SDS011;6881;49.962;7.718;2023-05-24T05:52:21;7.47;;;2.90;;
3781;SDS011;6881;49.962;7.718;2023-05-24T05:54:47;10.47;;;4.60;;
3781;SDS011;6881;49.962;7.718;2023-05-24T05:57:12;10.93;;;3.20;;
3781;SDS011;6881;49.962;7.718;2023-05-24T05:59:37;12.03;;;3.87;;
3781;SDS011;6881;49.962;7.718;2023-05-24T06:02:03;3.27;;;2.60;;
3781;SDS011;6881;49.962;7.718;2023-05-24T06:04:29;6.60;;;2.30;;
3781;SDS011;6881;49.962;7.718;2023-05-24T06:06:55;8.03;;;2.70;;
3781;SDS011;6881;49.962;7.718;2023-05-24T06:09:20;11.97;;;3.60;;
3781;SDS011;6881;49.962;7.718;2023-05-24T06:11:46;7.10;;;2.70;;
3781;SDS011;6881;49.962;7.718;2023-05-24T06:14:11;8.00;;;2.97;;
3781;SDS011;6881;49.962;7.718;2023-05-24T06:16:43;6.53;;;3.07;;
3781;SDS011;6881;49.962;7.718;2023-05-24T06:19:10;8.00;;;2.87;;
3781;SDS011;6881;49.962;7.718;2023-05-24T06:21:39;5.77;;;2.73;;
3781;SDS011;6881;49.962;7.718;2023-05-24T06:24:11;6.40;;;3.33;;
3781;SDS011;6881;49.962;7.718;2023-05-24T06:26:37;8.97;;;2.60;;
3781;SDS011;6881;49.962;7.718;2023-05-24T06:29:02;8.77;;;3.27;;
3781;SDS011;6881;49.962;7.718;2023-05-24T06:31:28;6.27;;;2.73;;
3781;SDS011;6881;49.962;7.718;2023-05-24T06:33:53;7.70;;;3.77;;
3781;SDS011;6881;49.962;7.718;2023-05-24T06:36:18;10.50;;;3.50;;
3781;SDS011;6881;49.962;7.718;2023-05-24T06:38:43;7.20;;;3.10;;
3781;SDS011;6881;49.962;7.718;2023-05-24T06:41:09;6.43;;;2.97;;
3781;SDS011;6881;49.962;7.718;2023-05-24T06:43:35;5.97;;;3.00;;
3781;SDS011;6881;49.962;7.718;2023-05-24T06:46:00;5.90;;;2.57;;
3781;SDS011;6881;49.962;7.718;2023-05-24T06:48:25;5.40;;;3.00;;
3781;SDS011;6881;49.962;7.718;2023-05-24T06:50:51;6.43;;;3.07;;
3781;SDS011;6881;49.962;7.718;2023-05-24T06:53:16;6.10;;;2.83;;
3781;SDS011;6881;49.962;7.718;2023-05-24T06:55:41;11.50;;;3.33;;
3781;SDS011;6881;49.962;7.718;2023-05-24T06:58:07;11.30;;;3.23;;
3781;SDS011;6881;49.962;7.718;2023-05-24T07:00:38;7.20;;;3.90;;
3781;SDS011;6881;49.962;7.718;2023-05-24T07:03:03;13.50;;;5.23;;
3781;SDS011;6881;49.962;7.718;2023-05-24T07:05:28;9.73;;;3.90;;
3781;SDS011;6881;49.962;7.718;2023-05-24T07:07:54;4.20;;;3.00;;
3781;SDS011;6881;49.962;7.718;2023-05-24T07:10:19;4.20;;;2.80;;
3781;SDS011;6881;49.962;7.718;2023-05-24T07:12:44;7.00;;;3.63;;
3781;SDS011;6881;49.962;7.718;2023-05-24T07:15:10;7.20;;;2.70;;
3781;SDS011;6881;49.962;7.718;2023-05-24T07:17:35;13.30;;;3.07;;
3781;SDS011;6881;49.962;7.718;2023-05-24T07:20:01;6.47;;;2.80;;
3781;SDS011;6881;49.962;7.718;2023-05-24T07:22:26;8.30;;;3.23;;
3781;SDS011;6881;49.962;7.718;2023-05-24T07:24:53;10.03;;;2.90;;
3781;SDS011;6881;49.962;7.718;2023-05-24T07:27:18;5.90;;;3.10;;
3781;SDS011;6881;49.962;7.718;2023-05-24T07:29:44;5.37;;;3.37;;
3781;SDS011;6881;49.962;7.718;2023-05-24T07:32:09;5.47;;;2.50;;
3781;SDS011;6881;49.962;7.718;2023-05-24T07:34:35;6.73;;;3.13;;
3781;SDS011;6881;49.962;7.718;2023-05-24T07:37:00;7.03;;;2.73;;
3781;SDS011;6881;49.962;7.718;2023-05-24T07:39:26;7.53;;;2.93;;
3781;SDS011;6881;49.962;7.718;2023-05-24T07:41:54;8.93;;;4.97;;
3781;SDS011;6881;49.962;7.718;2023-05-24T07:44:19;4.63;;;2.57;;
3781;SDS011;6881;49.962;7.718;2023-05-24T07:46:45;5.20;;;2.67;;
3781;SDS011;6881;49.962;7.718;2023-05-24T07:49:10;5.43;;;2.70;;
3781;SDS011;6881;49.962;7.718;2023-05-24T07:51:36;8.60;;;2.53;;
3781;SDS011;6881;49.962;7.718;2023-05-24T07:54:02;4.90;;;2.77;;
3781;SDS011;6881;49.962;7.718;2023-05-24T07:56:27;5.53;;;2.47;;
3781;SDS011;6881;49.962;7.718;2023-05-24T07:58:53;5.60;;;2.60;;
3781;SDS011;6881;49.962;7.718;2023-05-24T08:01:23;5.57;;;2.43;;
3781;SDS011;6881;49.962;7.718;2023-05-24T08:03:48;4.83;;;2.17;;
3781;SDS011;6881;49.962;7.718;2023-05-24T08:06:14;6.80;;;2.37;;
3781;SDS011;6881;49.962;7.718;2023-05-24T08:08:39;5.10;;;2.67;;
3781;SDS011;6881;49.962;7.718;2023-05-24T08:11:05;9.33;;;3.23;;
3781;SDS011;6881;49.962;7.718;2023-05-24T08:13:31;7.13;;;2.63;;
3781;SDS011;6881;49.962;7.718;2023-05-24T08:15:57;9.60;;;3.17;;
3781;SDS011;6881;49.962;7.718;2023-05-24T08:18:22;6.63;;;3.17;;
3781;SDS011;6881;49.962;7.718;2023-05-24T08:20:47;7.27;;;3.07;;
3781;SDS011;6881;49.962;7.718;2023-05-24T08:23:13;9.60;;;4.07;;
3781;SDS011;6881;49.962;7.718;2023-05-24T08:25:38;8.57;;;3.50;;
3781;SDS011;6881;49.962;7.718;2023-05-24T08:28:04;5.80;;;3.33;;
3781;SDS011;6881;49.962;7.718;2023-05-24T08:30:30;6.13;;;3.37;;
3781;SDS011;6881;49.962;7.718;2023-05-24T08:32:56;5.73;;;3.33;;
3781;SDS011;6881;49.962;7.718;2023-05-24T08:35:22;6.13;;;3.10;;
3781;SDS011;6881;49.962;7.718;2023-05-24T08:37:47;6.70;;;2.57;;
3781;SDS011;6881;49.962;7.718;2023-05-24T08:40:13;7.40;;;4.17;;
3781;SDS011;6881;49.962;7.718;2023-05-24T08:42:38;6.50;;;2.83;;
3781;SDS011;6881;49.962;7.718;2023-05-24T08:45:08;7.23;;;2.30;;
3781;SDS011;6881;49.962;7.718;2023-05-24T08:47:35;3.73;;;2.40;;
3781;SDS011;6881;49.962;7.718;2023-05-24T08:50:01;6.97;;;3.30;;
3781;SDS011;6881;49.962;7.718;2023-05-24T08:52:28;5.47;;;2.27;;
3781;SDS011;6881;49.962;7.718;2023-05-24T08:54:54;4.40;;;2.80;;
3781;SDS011;6881;49.962;7.718;2023-05-24T08:57:19;6.27;;;3.07;;
3781;SDS011;6881;49.962;7.718;2023-05-24T08:59:46;7.03;;;3.80;;
3781;SDS011;6881;49.962;7.718;2023-05-24T09:02:12;6.57;;;3.00;;
3781;SDS011;6881;49.962;7.718;2023-05-24T09:04:38;4.47;;;2.90;;
3781;SDS011;6881;49.962;7.718;2023-05-24T09:07:06;4.33;;;3.00;;
3781;SDS011;6881;49.962;7.718;2023-05-24T09:09:31;8.53;;;3.30;;
3781;SDS011;6881;49.962;7.718;2023-05-24T09:11:58;3.80;;;2.40;;
3781;SDS011;6881;49.962;7.718;2023-05-24T09:14:26;5.57;;;3.70;;
3781;SDS011;6881;49.962;7.718;2023-05-24T09:16:51;5.97;;;3.00;;
3781;SDS011;6881;49.962;7.718;2023-05-24T09:19:18;5.30;;;3.50;;
3781;SDS011;6881;49.962;7.718;2023-05-24T09:21:43;7.50;;;2.70;;
3781;SDS011;6881;49.962;7.718;2023-05-24T09:24:10;7.53;;;2.90;;
3781;SDS011;6881;49.962;7.718;2023-05-24T09:26:35;7.53;;;2.80;;
3781;SDS011;6881;49.962;7.718;2023-05-24T09:29:02;7.50;;;3.17;;
3781;SDS011;6881;49.962;7.718;2023-05-24T09:31:33;5.73;;;2.83;;
3781;SDS011;6881;49.962;7.718;2023-05-24T09:34:00;5.50;;;3.20;;
3781;SDS011;6881;49.962;7.718;2023-05-24T09:36:26;7.00;;;3.80;;
3781;SDS011;6881;49.962;7.718;2023-05-24T09:39:07;5.83;;;3.70;;
3781;SDS011;6881;49.962;7.718;2023-05-24T09:41:34;6.90;;;3.33;;
3781;SDS011;6881;49.962;7.718;2023-05-24T09:44:00;7.97;;;3.20;;
3781;SDS011;6881;49.962;7.718;2023-05-24T09:46:27;5.90;;;2.83;;
3781;SDS011;6881;49.962;7.718;2023-05-24T09:48:57;7.07;;;3.33;;
3781;SDS011;6881;49.962;7.718;2023-05-24T09:51:23;7.37;;;3.53;;
3781;SDS011;6881;49.962;7.718;2023-05-24T09:53:48;5.00;;;3.00;;
3781;SDS011;6881;49.962;7.718;2023-05-24T09:56:16;5.90;;;3.33;;
3781;SDS011;6881;49.962;7.718;2023-05-24T09:58:42;9.30;;;3.30;;
3781;SDS011;6881;49.962;7.718;2023-05-24T10:01:09;11.00;;;3.23;;
3781;SDS011;6881;49.962;7.718;2023-05-24T10:03:35;4.77;;;3.40;;
3781;SDS011;6881;49.962;7.718;2023-05-24T10:06:01;7.40;;;3.47;;
3781;SDS011;6881;49.962;7.718;2023-05-24T10:08:28;4.93;;;3.53;;
3781;SDS011;6881;49.962;7.718;2023-05-24T10:10:54;6.10;;;3.30;;
3781;SDS011;6881;49.962;7.718;2023-05-24T10:13:21;7.67;;;3.30;;
3781;SDS011;6881;49.962;7.718;2023-05-24T10:15:47;6.00;;;3.37;;
3781;SDS011;6881;49.962;7.718;2023-05-24T10:18:12;5.90;;;4.03;;
3781;SDS011;6881;49.962;7.718;2023-05-24T10:20:38;5.77;;;3.20;;
3781;SDS011;6881;49.962;7.718;2023-05-24T10:23:06;7.43;;;3.50;;
3781;SDS011;6881;49.962;7.718;2023-05-24T10:25:33;9.40;;;3.30;;
3781;SDS011;6881;49.962;7.718;2023-05-24T10:28:00;5.77;;;3.63;;
3781;SDS011;6881;49.962;7.718;2023-05-24T10:30:32;4.50;;;3.23;;
3781;SDS011;6881;49.962;7.718;2023-05-24T10:33:00;6.00;;;3.20;;
3781;SDS011;6881;49.962;7.718;2023-05-24T10:35:25;4.23;;;3.23;;
3781;SDS011;6881;49.962;7.718;2023-05-24T10:37:51;5.80;;;3.33;;
3781;SDS011;6881;49.962;7.718;2023-05-24T10:40:19;6.70;;;3.80;;
3781;SDS011;6881;49.962;7.718;2023-05-24T10:42:46;9.17;;;4.87;;
3781;SDS011;6881;49.962;7.718;2023-05-24T10:45:28;6.07;;;3.50;;
3781;SDS011;6881;49.962;7.718;2023-05-24T10:47:55;8.03;;;3.43;;
3781;SDS011;6881;49.962;7.718;2023-05-24T10:50:23;5.90;;;3.87;;
3781;SDS011;6881;49.962;7.718;2023-05-24T10:52:49;6.67;;;4.00;;
3781;SDS011;6881;49.962;7.718;2023-05-24T10:55:14;4.60;;;3.53;;
3781;SDS011;6881;49.962;7.718;2023-05-24T10:57:40;9.00;;;4.17;;
3781;SDS011;6881;49.962;7.718;2023-05-24T11:02:59;9.70;;;4.50;;
3781;SDS011;6881;49.962;7.718;2023-05-24T11:05:34;5.70;;;4.10;;
3781;SDS011;6881;49.962;7.718;2023-05-24T11:08:00;8.97;;;4.33;;
3781;SDS011;6881;49.962;7.718;2023-05-24T11:10:30;9.37;;;4.30;;
3781;SDS011;6881;49.962;7.718;2023-05-24T11:12:56;6.03;;;3.73;;
3781;SDS011;6881;49.962;7.718;2023-05-24T11:15:24;5.93;;;4.03;;
3781;SDS011;6881;49.962;7.718;2023-05-24T11:20:33;5.10;;;3.40;;
3781;SDS011;6881;49.962;7.718;2023-05-24T11:23:02;6.57;;;3.70;;
3781;SDS011;6881;49.962;7.718;2023-05-24T11:25:34;7.47;;;4.07;;
3781;SDS011;6881;49.962;7.718;2023-05-24T11:28:05;7.07;;;4.17;;
3781;SDS011;6881;49.962;7.718;2023-05-24T11:30:31;8.90;;;4.07;;
3781;SDS011;6881;49.962;7.718;2023-05-24T11:32:57;9.50;;;4.30;;
3781;SDS011;6881;49.962;7.718;2023-05-24T11:35:22;11.83;;;4.90;;
3781;SDS011;6881;49.962;7.718;2023-05-24T11:37:51;9.03;;;5.03;;
3781;SDS011;6881;49.962;7.718;2023-05-24T11:40:17;8.00;;;4.73;;
3781;SDS011;6881;49.962;7.718;2023-05-24T11:42:44;7.20;;;4.80;;
3781;SDS011;6881;49.962;7.718;2023-05-24T11:45:11;7.87;;;4.23;;
3781;SDS011;6881;49.962;7.718;2023-05-24T11:47:37;10.30;;;4.90;;
3781;SDS011;6881;49.962;7.718;2023-05-24T11:50:03;7.80;;;4.37;;
3781;SDS011;6881;49.962;7.718;2023-05-24T11:52:29;6.77;;;4.10;;
3781;SDS011;6881;49.962;7.718;2023-05-24T11:54:55;10.30;;;4.60;;
3781;SDS011;6881;49.962;7.718;2023-05-24T11:57:22;9.67;;;4.43;;
3781;SDS011;6881;49.962;7.718;2023-05-24T12:00:10;9.33;;;4.37;;
3781;SDS011;6881;49.962;7.718;2023-05-24T12:02:41;7.80;;;4.70;;
3781;SDS011;6881;49.962;7.718;2023-05-24T12:05:07;11.80;;;5.07;;
3781;SDS011;6881;49.962;7.718;2023-05-24T12:07:37;9.17;;;4.80;;
3781;SDS011;6881;49.962;7.718;2023-05-24T12:10:04;6.50;;;4.17;;
3781;SDS011;6881;49.962;7.718;2023-05-24T12:14:58;7.90;;;3.97;;
3781;SDS011;6881;49.962;7.718;2023-05-24T12:17:23;8.23;;;4.20;;
3781;SDS011;6881;49.962;7.718;2023-05-24T12:19:49;8.70;;;4.70;;
3781;SDS011;6881;49.962;7.718;2023-05-24T12:22:15;8.80;;;4.80;;
3781;SDS011;6881;49.962;7.718;2023-05-24T12:24:41;11.87;;;4.60;;
3781;SDS011;6881;49.962;7.718;2023-05-24T12:27:06;9.93;;;4.80;;
3781;SDS011;6881;49.962;7.718;2023-05-24T12:29:33;6.70;;;4.67;;
3781;SDS011;6881;49.962;7.718;2023-05-24T12:31:59;6.70;;;3.90;;
3781;SDS011;6881;49.962;7.718;2023-05-24T12:34:25;10.00;;;5.37;;
3781;SDS011;6881;49.962;7.718;2023-05-24T12:36:51;10.37;;;5.10;;
3781;SDS011;6881;49.962;7.718;2023-05-24T12:41:51;8.10;;;4.40;;
3781;SDS011;6881;49.962;7.718;2023-05-24T12:44:21;5.93;;;3.73;;
3781;SDS011;6881;49.962;7.718;2023-05-24T12:46:48;5.87;;;3.63;;
3781;SDS011;6881;49.962;7.718;2023-05-24T12:49:15;7.77;;;4.80;;
3781;SDS011;6881;49.962;7.718;2023-05-24T12:51:40;5.03;;;3.47;;
3781;SDS011;6881;49.962;7.718;2023-05-24T12:54:06;9.03;;;3.90;;
3781;SDS011;6881;49.962;7.718;2023-05-24T12:56:31;5.97;;;3.93;;
3781;SDS011;6881;49.962;7.718;2023-05-24T12:58:56;9.60;;;4.00;;
3781;SDS011;6881;49.962;7.718;2023-05-24T13:01:22;7.77;;;4.20;;
3781;SDS011;6881;49.962;7.718;2023-05-24T13:03:48;9.33;;;4.00;;
3781;SDS011;6881;49.962;7.718;2023-05-24T13:06:13;5.17;;;3.40;;
3781;SDS011;6881;49.962;7.718;2023-05-24T13:08:39;9.30;;;4.27;;
3781;SDS011;6881;49.962;7.718;2023-05-24T13:11:04;9.90;;;4.93;;
3781;SDS011;6881;49.962;7.718;2023-05-24T13:13:29;8.17;;;4.47;;
3781;SDS011;6881;49.962;7.718;2023-05-24T13:15:56;6.23;;;3.40;;
3781;SDS011;6881;49.962;7.718;2023-05-24T13:18:21;6.00;;;4.77;;
3781;SDS011;6881;49.962;7.718;2023-05-24T13:20:47;10.67;;;5.00;;
3781;SDS011;6881;49.962;7.718;2023-05-24T13:23:12;8.03;;;3.83;;
3781;SDS011;6881;49.962;7.718;2023-05-24T13:25:38;11.40;;;4.27;;
3781;SDS011;6881;49.962;7.718;2023-05-24T13:28:03;8.23;;;3.30;;
3781;SDS011;6881;49.962;7.718;2023-05-24T13:30:29;5.97;;;3.17;;
3781;SDS011;6881;49.962;7.718;2023-05-24T13:32:54;5.70;;;3.23;;
3781;SDS011;6881;49.962;7.718;2023-05-24T13:35:20;6.33;;;4.40;;
3781;SDS011;6881;49.962;7.718;2023-05-24T13:37:46;4.40;;;3.30;;
3781;SDS011;6881;49.962;7.718;2023-05-24T13:40:12;9.27;;;3.57;;
3781;SDS011;6881;49.962;7.718;2023-05-24T13:42:37;7.23;;;3.77;;
3781;SDS011;6881;49.962;7.718;2023-05-24T13:45:03;8.00;;;3.53;;
3781;SDS011;6881;49.962;7.718;2023-05-24T13:47:29;4.70;;;3.50;;
3781;SDS011;6881;49.962;7.718;2023-05-24T13:49:54;5.63;;;3.63;;
3781;SDS011;6881;49.962;7.718;2023-05-24T13:52:20;8.80;;;3.83;;
3781;SDS011;6881;49.962;7.718;2023-05-24T13:54:46;12.97;;;4.27;;
3781;SDS011;6881;49.962;7.718;2023-05-24T13:57:12;4.73;;;3.57;;
3781;SDS011;6881;49.962;7.718;2023-05-24T13:59:37;13.90;;;4.43;;
3781;SDS011;6881;49.962;7.718;2023-05-24T14:02:03;6.20;;;3.27;;
3781;SDS011;6881;49.962;7.718;2023-05-24T14:04:28;5.67;;;3.67;;
3781;SDS011;6881;49.962;7.718;2023-05-24T14:06:54;5.83;;;3.13;;
3781;SDS011;6881;49.962;7.718;2023-05-24T14:09:19;7.40;;;4.60;;
3781;SDS011;6881;49.962;7.718;2023-05-24T14:11:45;5.60;;;3.40;;
3781;SDS011;6881;49.962;7.718;2023-05-24T14:14:10;5.53;;;3.83;;
3781;SDS011;6881;49.962;7.718;2023-05-24T14:16:36;7.83;;;3.87;;
3781;SDS011;6881;49.962;7.718;2023-05-24T14:19:01;4.37;;;3.60;;
3781;SDS011;6881;49.962;7.718;2023-05-24T14:21:26;7.30;;;3.40;;
3781;SDS011;6881;49.962;7.718;2023-05-24T14:23:52;6.03;;;3.47;;
3781;SDS011;6881;49.962;7.718;2023-05-24T14:26:17;7.70;;;4.33;;
3781;SDS011;6881;49.962;7.718;2023-05-24T14:28:43;7.97;;;3.50;;
3781;SDS011;6881;49.962;7.718;2023-05-24T14:31:08;6.00;;;3.67;;
3781;SDS011;6881;49.962;7.718;2023-05-24T14:33:34;7.77;;;3.90;;
3781;SDS011;6881;49.962;7.718;2023-05-24T14:35:59;8.00;;;3.57;;
3781;SDS011;6881;49.962;7.718;2023-05-24T14:38:24;7.20;;;3.57;;
3781;SDS011;6881;49.962;7.718;2023-05-24T14:40:50;6.20;;;4.07;;
3781;SDS011;6881;49.962;7.718;2023-05-24T14:43:15;7.63;;;3.60;;
3781;SDS011;6881;49.962;7.718;2023-05-24T14:45:41;5.73;;;3.03;;
3781;SDS011;6881;49.962;7.718;2023-05-24T14:48:07;7.30;;;3.77;;
3781;SDS011;6881;49.962;7.718;2023-05-24T14:50:36;3.83;;;2.73;;
3781;SDS011;6881;49.962;7.718;2023-05-24T14:53:02;5.80;;;3.30;;
3781;SDS011;6881;49.962;7.718;2023-05-24T14:55:33;7.30;;;4.00;;
3781;SDS011;6881;49.962;7.718;2023-05-24T14:57:59;7.27;;;3.90;;
3781;SDS011;6881;49.962;7.718;2023-05-24T15:00:24;5.73;;;3.40;;
3781;SDS011;6881;49.962;7.718;2023-05-24T15:02:50;6.93;;;4.03;;
3781;SDS011;6881;49.962;7.718;2023-05-24T15:05:15;6.00;;;3.60;;
3781;SDS011;6881;49.962;7.718;2023-05-24T15:07:40;8.57;;;4.23;;
3781;SDS011;6881;49.962;7.718;2023-05-24T15:10:06;11.00;;;3.90;;
3781;SDS011;6881;49.962;7.718;2023-05-24T15:12:32;4.30;;;3.60;;
3781;SDS011;6881;49.962;7.718;2023-05-24T15:14:57;10.47;;;4.07;;
3781;SDS011;6881;49.962;7.718;2023-05-24T15:17:22;10.10;;;4.10;;
3781;SDS011;6881;49.962;7.718;2023-05-24T15:19:48;10.90;;;4.20;;
3781;SDS011;6881;49.962;7.718;2023-05-24T15:22:13;8.83;;;4.90;;
3781;SDS011;6881;49.962;7.718;2023-05-24T15:24:38;9.40;;;4.23;;
3781;SDS011;6881;49.962;7.718;2023-05-24T15:27:04;6.27;;;3.80;;
3781;SDS011;6881;49.962;7.718;2023-05-24T15:29:29;6.00;;;4.17;;